Time;durP1;ratioP1;P1;durP2;ratioP2;P2;SDS_P1;SDS_P2;PMS_P1;PMS_P2;Temp;Humidity;BMP_temperature;BMP_pressure;BME280_temperature;BME280_humidity;BME280_pressure;Samples;Min_cycle;Max_cycle;Signal;HPM_P1;HPM_P2
2022/10/15 00:00:26;;;;;;;1.80;1.47;;;15.30;98.00;;;;;;5050923;28;20470;-69
2022/10/15 00:02:53;;;;;;;2.27;1.40;;;15.40;98.00;;;;;;5051767;28;20472;-69
2022/10/15 00:05:21;;;;;;;1.53;1.33;;;15.40;98.00;;;;;;5052079;28;20528;-68
2022/10/15 00:07:48;;;;;;;1.30;1.23;;;15.40;98.00;;;;;;5051677;28;20446;-69
2022/10/15 00:10:17;;;;;;;1.40;1.30;;;15.30;98.00;;;;;;5051773;28;20456;-70
2022/10/15 00:12:44;;;;;;;3.40;1.73;;;15.30;98.00;;;;;;5051858;28;20454;-69
2022/10/15 00:15:12;;;;;;;1.70;1.40;;;15.30;98.00;;;;;;5051766;28;20821;-69
2022/10/15 00:17:41;;;;;;;1.80;1.50;;;15.20;98.00;;;;;;5051671;28;20501;-70
2022/10/15 00:20:10;;;;;;;1.57;1.27;;;15.20;98.00;;;;;;5051518;28;20611;-69
2022/10/15 00:22:39;;;;;;;1.67;1.50;;;15.20;98.00;;;;;;5051842;28;21006;-69
2022/10/15 00:25:08;;;;;;;1.57;1.47;;;15.10;98.00;;;;;;5051655;28;20464;-69
2022/10/15 00:27:38;;;;;;;1.60;1.30;;;15.10;98.00;;;;;;5051631;28;20564;-69
2022/10/15 00:30:07;;;;;;;2.47;1.90;;;15.10;98.00;;;;;;5051739;28;20653;-69
2022/10/15 00:32:34;;;;;;;1.40;1.30;;;15.00;98.00;;;;;;5051532;28;20461;-69
2022/10/15 00:35:02;;;;;;;1.47;1.20;;;15.00;98.00;;;;;;5051581;28;20832;-68
2022/10/15 00:37:29;;;;;;;4.43;1.43;;;15.20;98.00;;;;;;5033781;28;20834;-69
2022/10/15 00:39:56;;;;;;;1.20;1.10;;;15.10;98.00;;;;;;5051618;28;20525;-68
2022/10/15 00:42:24;;;;;;;1.70;1.30;;;15.10;98.00;;;;;;5050173;28;20485;-69
2022/10/15 00:44:55;;;;;;;1.23;1.20;;;15.10;98.00;;;;;;5051620;28;20460;-69
2022/10/15 00:47:30;;;;;;;1.37;1.17;;;15.20;98.00;;;;;;5051344;28;20758;-69
2022/10/15 00:50:02;;;;;;;2.07;1.50;;;15.40;98.00;;;;;;5050192;28;20464;-69
2022/10/15 00:52:42;;;;;;;2.07;1.40;;;15.30;98.00;;;;;;5051632;28;20818;-68
2022/10/15 00:55:14;;;;;;;1.60;1.30;;;15.20;98.00;;;;;;5051372;28;20955;-69
2022/10/15 00:57:43;;;;;;;1.73;1.30;;;15.30;98.00;;;;;;5051471;28;20464;-69
2022/10/15 01:00:15;;;;;;;4.13;1.63;;;15.20;98.00;;;;;;5049952;28;20466;-69
2022/10/15 01:02:42;;;;;;;1.93;1.37;;;15.30;98.00;;;;;;5051157;28;20570;-68
2022/10/15 01:05:11;;;;;;;2.00;1.50;;;15.30;98.00;;;;;;5051108;28;20894;-69
2022/10/15 01:07:38;;;;;;;1.80;1.43;;;15.40;98.00;;;;;;5051052;28;20469;-68
2022/10/15 01:10:07;;;;;;;2.53;1.53;;;15.30;98.00;;;;;;5051171;28;20831;-69
2022/10/15 01:12:58;;;;;;;1.30;1.27;;;15.40;98.00;;;;;;5050102;28;20986;-69
2022/10/15 01:15:33;;;;;;;1.20;1.20;;;15.40;98.00;;;;;;5051047;28;20472;-69
2022/10/15 01:18:07;;;;;;;1.83;1.30;;;15.30;98.00;;;;;;5050760;28;20969;-69
2022/10/15 01:20:55;;;;;;;2.67;1.50;;;15.30;98.00;;;;;;5053783;28;20867;-69
2022/10/15 01:23:55;;;;;;;1.20;1.10;;;15.30;98.00;;;;;;5053588;28;20816;-69
2022/10/15 01:27:06;;;;;;;1.10;1.00;;;15.30;98.00;;;;;;5054883;28;20487;-69
2022/10/15 01:30:03;;;;;;;1.20;1.00;;;15.50;98.00;;;;;;5055055;28;20468;-69
2022/10/15 01:32:36;;;;;;;1.40;1.20;;;15.50;98.00;;;;;;5052527;28;20492;-68
2022/10/15 01:35:14;;;;;;;1.10;1.00;;;15.50;98.00;;;;;;5054891;28;20462;-69
2022/10/15 01:37:46;;;;;;;2.10;1.10;;;15.60;98.00;;;;;;5054951;28;20966;-69
2022/10/15 01:40:19;;;;;;;1.10;1.00;;;15.60;98.00;;;;;;5054580;28;20454;-70
2022/10/15 01:42:53;;;;;;;1.17;1.07;;;15.60;98.00;;;;;;5053394;28;20511;-69
2022/10/15 01:45:25;;;;;;;1.20;1.10;;;15.70;98.00;;;;;;5054460;28;20470;-68
2022/10/15 01:47:56;;;;;;;1.10;1.00;;;15.70;98.00;;;;;;5054335;28;20476;-69
2022/10/15 01:50:27;;;;;;;1.10;1.10;;;15.60;98.00;;;;;;5054449;28;20463;-68
2022/10/15 01:52:56;;;;;;;1.10;1.10;;;15.50;98.00;;;;;;5054597;28;20485;-69
2022/10/15 01:55:26;;;;;;;1.10;0.90;;;15.50;98.00;;;;;;5054644;28;20460;-69
2022/10/15 01:58:00;;;;;;;1.10;1.03;;;15.50;98.00;;;;;;5054787;28;20834;-69
2022/10/15 02:00:27;;;;;;;1.10;1.03;;;15.60;98.00;;;;;;5054442;28;20460;-69
2022/10/15 02:03:01;;;;;;;1.40;1.00;;;15.70;98.00;;;;;;5052924;28;20499;-68
2022/10/15 02:05:32;;;;;;;1.10;0.90;;;15.80;98.00;;;;;;5054269;28;20454;-68
2022/10/15 02:08:07;;;;;;;1.87;1.10;;;15.80;98.00;;;;;;5054134;28;20475;-68
2022/10/15 02:10:43;;;;;;;1.20;1.00;;;15.80;98.00;;;;;;5054159;28;20899;-69
2022/10/15 02:13:17;;;;;;;1.10;1.10;;;15.90;98.00;;;;;;5053935;28;20488;-69
2022/10/15 02:15:58;;;;;;;1.10;1.00;;;15.90;98.00;;;;;;5054302;28;20448;-69
2022/10/15 02:18:33;;;;;;;1.10;0.90;;;15.80;98.00;;;;;;5053776;28;20464;-69
2022/10/15 02:21:06;;;;;;;1.50;1.10;;;15.90;98.00;;;;;;5053820;28;20509;-69
2022/10/15 02:23:43;;;;;;;1.10;1.00;;;15.90;98.00;;;;;;5054200;28;20465;-69
2022/10/15 02:26:12;;;;;;;3.50;1.30;;;15.90;98.00;;;;;;5053694;28;20951;-69
2022/10/15 02:28:44;;;;;;;1.10;1.00;;;15.80;98.00;;;;;;5053700;28;20468;-69
2022/10/15 02:31:14;;;;;;;1.10;1.00;;;15.80;98.00;;;;;;5053344;28;20463;-69
2022/10/15 02:33:44;;;;;;;1.30;1.00;;;15.80;98.00;;;;;;5052607;28;20504;-69
2022/10/15 02:36:11;;;;;;;1.10;1.00;;;15.80;98.00;;;;;;5053389;28;20465;-69
2022/10/15 02:38:42;;;;;;;1.53;1.10;;;15.90;98.00;;;;;;5053800;28;20547;-69
2022/10/15 02:41:10;;;;;;;1.20;1.10;;;15.90;98.00;;;;;;5053343;28;20841;-68
2022/10/15 02:43:41;;;;;;;1.10;1.00;;;15.90;98.00;;;;;;5053593;28;20462;-69
2022/10/15 02:46:11;;;;;;;1.10;0.90;;;15.90;98.00;;;;;;5053257;28;20861;-69
2022/10/15 02:48:38;;;;;;;1.10;1.00;;;15.90;98.00;;;;;;5053336;28;20495;-70
2022/10/15 02:51:08;;;;;;;1.10;1.10;;;15.90;98.00;;;;;;5053356;28;20472;-69
2022/10/15 02:53:36;;;;;;;1.10;0.90;;;15.90;98.00;;;;;;5053219;28;20455;-69
2022/10/15 02:56:05;;;;;;;1.20;1.00;;;15.80;98.00;;;;;;5053506;28;20448;-69
2022/10/15 02:58:32;;;;;;;1.10;0.90;;;15.80;98.00;;;;;;5053034;28;20461;-69
2022/10/15 03:01:00;;;;;;;1.10;0.93;;;15.90;98.00;;;;;;5053174;28;20460;-68
2022/10/15 03:03:28;;;;;;;1.20;1.10;;;15.80;98.00;;;;;;5053239;28;20563;-68
2022/10/15 03:05:57;;;;;;;1.43;1.30;;;15.80;98.00;;;;;;5053095;28;20460;-69
2022/10/15 03:08:26;;;;;;;1.50;1.20;;;15.80;98.00;;;;;;5052885;28;20453;-69
2022/10/15 03:10:53;;;;;;;1.10;0.90;;;15.80;98.00;;;;;;5052841;28;20467;-69
2022/10/15 03:13:21;;;;;;;9.43;1.00;;;15.80;98.00;;;;;;5052607;28;20464;-68
2022/10/15 03:15:48;;;;;;;1.10;1.00;;;15.80;98.00;;;;;;5052736;28;20460;-69
2022/10/15 03:18:15;;;;;;;1.10;0.97;;;15.80;98.00;;;;;;5052635;28;20456;-69
2022/10/15 03:20:42;;;;;;;1.10;1.00;;;15.90;98.00;;;;;;5052928;28;20455;-69
2022/10/15 03:23:10;;;;;;;1.10;1.00;;;15.80;98.00;;;;;;5052640;28;20541;-69
2022/10/15 03:25:42;;;;;;;1.10;1.00;;;15.90;98.00;;;;;;5051384;28;20843;-69
2022/10/15 03:28:09;;;;;;;1.10;1.00;;;15.90;98.00;;;;;;5052644;28;20950;-69
2022/10/15 03:30:36;;;;;;;1.20;0.90;;;15.90;98.00;;;;;;5052583;28;20598;-70
2022/10/15 03:33:03;;;;;;;1.10;1.00;;;15.90;98.00;;;;;;5052505;28;20488;-68
2022/10/15 03:35:33;;;;;;;1.10;0.93;;;15.90;98.00;;;;;;5052546;28;20478;-69
2022/10/15 03:38:00;;;;;;;1.10;1.00;;;15.90;98.00;;;;;;5052547;28;20824;-69
2022/10/15 03:40:27;;;;;;;1.10;1.10;;;15.90;98.00;;;;;;5052585;28;20471;-69
2022/10/15 03:42:56;;;;;;;1.10;1.00;;;15.90;98.00;;;;;;5051436;28;20512;-69
2022/10/15 03:45:24;;;;;;;1.10;0.93;;;15.90;98.00;;;;;;5052189;28;20496;-69
2022/10/15 03:47:51;;;;;;;1.10;1.00;;;15.90;98.00;;;;;;5052089;28;20465;-69
2022/10/15 03:50:18;;;;;;;1.10;1.00;;;15.90;98.00;;;;;;5052482;28;20622;-69
2022/10/15 03:52:46;;;;;;;1.20;1.10;;;15.90;98.00;;;;;;5052078;28;20969;-69
2022/10/15 03:55:13;;;;;;;1.10;1.00;;;16.00;98.00;;;;;;5050962;28;20851;-69
2022/10/15 03:57:41;;;;;;;1.10;0.90;;;16.00;98.00;;;;;;5052223;28;20461;-69
2022/10/15 04:00:12;;;;;;;1.10;1.00;;;16.00;98.00;;;;;;5052281;28;20489;-69
2022/10/15 04:02:39;;;;;;;1.10;1.00;;;16.00;98.00;;;;;;5052033;28;20507;-69
2022/10/15 04:05:06;;;;;;;1.40;0.90;;;16.00;98.00;;;;;;5051993;28;20461;-69
2022/10/15 04:07:33;;;;;;;1.30;1.13;;;16.00;98.00;;;;;;5050537;28;20461;-69
2022/10/15 04:10:00;;;;;;;1.10;0.90;;;16.00;98.00;;;;;;5051860;28;20467;-69
2022/10/15 04:12:27;;;;;;;1.20;1.00;;;16.10;98.00;;;;;;5051604;28;20469;-69
2022/10/15 04:14:55;;;;;;;1.00;0.90;;;16.00;98.00;;;;;;5051717;28;20491;-69
2022/10/15 04:17:24;;;;;;;1.10;1.00;;;16.00;98.00;;;;;;5051679;28;20460;-69
2022/10/15 04:19:51;;;;;;;1.10;1.00;;;16.00;98.00;;;;;;5051599;28;20460;-69
2022/10/15 04:22:18;;;;;;;6.00;1.00;;;16.00;98.00;;;;;;5050533;28;21001;-70
2022/10/15 04:24:45;;;;;;;1.10;1.00;;;16.00;98.00;;;;;;5051487;28;20539;-69
2022/10/15 04:27:13;;;;;;;1.10;0.97;;;16.00;98.00;;;;;;5051616;28;20456;-69
2022/10/15 04:29:40;;;;;;;1.10;1.00;;;16.00;98.00;;;;;;5051625;28;20948;-69
2022/10/15 04:32:07;;;;;;;1.00;0.90;;;16.00;98.00;;;;;;5051680;28;20870;-70
2022/10/15 04:34:35;;;;;;;1.10;1.00;;;16.00;98.00;;;;;;5051334;28;20453;-69
2022/10/15 04:37:02;;;;;;;2.23;1.20;;;16.10;98.00;;;;;;5051380;28;20465;-69
2022/10/15 04:39:29;;;;;;;1.10;0.90;;;16.00;98.00;;;;;;5051285;28;20464;-69
2022/10/15 04:41:56;;;;;;;1.10;1.00;;;16.00;98.00;;;;;;5051240;28;21034;-69
2022/10/15 04:44:23;;;;;;;1.23;1.10;;;16.00;98.00;;;;;;5051349;28;20453;-69
2022/10/15 04:46:50;;;;;;;1.10;1.00;;;16.00;98.00;;;;;;5051145;28;20502;-69
2022/10/15 04:49:17;;;;;;;1.30;1.20;;;16.10;98.00;;;;;;5051192;28;20462;-69
2022/10/15 04:51:46;;;;;;;1.10;1.00;;;16.10;98.00;;;;;;5051494;28;20461;-69
2022/10/15 04:54:13;;;;;;;1.10;1.00;;;16.10;98.00;;;;;;5051155;28;20467;-69
2022/10/15 04:56:40;;;;;;;1.10;1.00;;;16.10;98.00;;;;;;5050053;28;20469;-69
2022/10/15 04:59:08;;;;;;;1.10;1.00;;;16.20;98.00;;;;;;5051442;28;20457;-69
2022/10/15 05:01:35;;;;;;;1.10;1.07;;;16.20;98.00;;;;;;5051068;28;20456;-69
2022/10/15 05:04:02;;;;;;;4.30;1.20;;;16.20;98.00;;;;;;5049804;28;20542;-69
2022/10/15 05:06:29;;;;;;;1.10;1.00;;;16.20;98.00;;;;;;5050929;28;20453;-69
2022/10/15 05:08:58;;;;;;;1.20;1.00;;;16.20;98.00;;;;;;5051042;28;20456;-69
2022/10/15 05:11:27;;;;;;;1.13;1.03;;;16.20;98.00;;;;;;5051028;28;20457;-69
2022/10/15 05:13:56;;;;;;;2.07;1.73;;;16.20;98.00;;;;;;5049838;28;20468;-69
2022/10/15 05:16:25;;;;;;;1.10;0.90;;;16.20;98.00;;;;;;5050882;28;20458;-69
2022/10/15 05:18:55;;;;;;;1.10;1.10;;;16.20;98.00;;;;;;5051249;28;20460;-69
2022/10/15 05:21:22;;;;;;;1.60;1.10;;;16.10;98.00;;;;;;5050932;28;20888;-69
2022/10/15 05:23:50;;;;;;;1.10;1.00;;;16.10;98.00;;;;;;5050865;28;20496;-69
2022/10/15 05:26:20;;;;;;;1.20;1.00;;;16.10;98.00;;;;;;5050812;28;20454;-70
2022/10/15 05:28:48;;;;;;;1.20;1.10;;;16.20;98.00;;;;;;5050801;28;20464;-69
2022/10/15 05:31:18;;;;;;;1.20;1.00;;;16.20;98.00;;;;;;5050853;28;20461;-69
2022/10/15 05:33:45;;;;;;;1.10;0.93;;;16.20;98.00;;;;;;5051020;28;20507;-69
2022/10/15 05:36:16;;;;;;;1.10;1.00;;;16.20;98.00;;;;;;5051036;28;20890;-69
2022/10/15 05:38:43;;;;;;;1.10;1.00;;;16.20;98.00;;;;;;5050789;28;20810;-69
2022/10/15 05:41:11;;;;;;;1.17;1.13;;;16.20;98.00;;;;;;5051199;28;20865;-69
2022/10/15 05:43:39;;;;;;;1.20;1.10;;;16.20;98.00;;;;;;5050789;28;20553;-69
2022/10/15 05:46:06;;;;;;;1.10;1.00;;;16.20;98.00;;;;;;5050794;28;20483;-69
2022/10/15 05:48:33;;;;;;;1.20;1.10;;;16.20;98.00;;;;;;5050628;28;20468;-69
2022/10/15 05:51:02;;;;;;;1.30;1.20;;;16.30;98.00;;;;;;5050740;28;20552;-68
2022/10/15 05:53:29;;;;;;;1.30;1.20;;;16.30;98.00;;;;;;5050643;28;20523;-68
2022/10/15 05:55:57;;;;;;;1.10;1.10;;;16.30;98.00;;;;;;5049497;28;20944;-69
2022/10/15 05:58:24;;;;;;;1.10;0.90;;;16.30;98.00;;;;;;5049550;28;20460;-69
2022/10/15 06:00:56;;;;;;;1.10;1.00;;;16.30;98.00;;;;;;5049583;28;20848;-70
2022/10/15 06:03:24;;;;;;;1.70;1.00;;;16.20;98.00;;;;;;5050391;28;20491;-68
2022/10/15 06:05:51;;;;;;;1.10;0.90;;;16.20;98.00;;;;;;5052000;28;20460;-69
2022/10/15 06:08:19;;;;;;;1.20;1.13;;;16.20;98.00;;;;;;5053920;28;20458;-69
2022/10/15 06:10:46;;;;;;;1.40;1.00;;;16.30;98.00;;;;;;5054161;28;20820;-69
2022/10/15 06:13:14;;;;;;;1.10;1.00;;;16.20;98.00;;;;;;5053915;28;20468;-69
2022/10/15 06:15:42;;;;;;;2.57;1.10;;;16.20;98.00;;;;;;5054011;28;20465;-69
2022/10/15 06:18:15;;;;;;;1.10;1.00;;;16.20;98.00;;;;;;5053645;28;20462;-69
2022/10/15 06:20:43;;;;;;;1.20;1.00;;;16.20;98.00;;;;;;5053788;28;20503;-69
2022/10/15 06:23:11;;;;;;;1.93;1.20;;;16.30;98.00;;;;;;5053551;28;20818;-69
2022/10/15 06:25:39;;;;;;;1.30;1.20;;;16.30;98.00;;;;;;5053820;28;20460;-69
2022/10/15 06:28:08;;;;;;;2.37;1.20;;;16.30;98.00;;;;;;5053624;28;20459;-69
2022/10/15 06:30:35;;;;;;;1.60;1.37;;;16.30;98.00;;;;;;5053651;28;20986;-69
2022/10/15 06:33:03;;;;;;;1.50;1.23;;;16.30;98.00;;;;;;5053535;28;20476;-69
2022/10/15 06:35:34;;;;;;;2.17;1.30;;;16.30;98.00;;;;;;5053482;28;20465;-69
2022/10/15 06:40:37;;;;;;;1.20;1.20;;;16.20;98.00;;;;;;5063957;22;20481;-69
2022/10/15 06:43:06;;;;;;;1.50;1.17;;;16.20;98.00;;;;;;5033340;28;20533;-69
2022/10/15 06:45:35;;;;;;;1.20;1.10;;;16.20;98.00;;;;;;5016101;28;20511;-69
2022/10/15 06:48:03;;;;;;;1.30;1.10;;;16.20;98.00;;;;;;5033311;28;20461;-69
2022/10/15 06:50:32;;;;;;;1.10;1.10;;;16.30;98.00;;;;;;5033269;28;20497;-69
2022/10/15 06:52:59;;;;;;;1.27;1.20;;;16.30;98.00;;;;;;5033585;28;20827;-69
2022/10/15 06:55:27;;;;;;;1.20;1.10;;;16.30;98.00;;;;;;5033350;28;20956;-69
2022/10/15 06:57:55;;;;;;;1.20;1.10;;;16.30;98.00;;;;;;5033581;28;20711;-64
2022/10/15 07:00:22;;;;;;;1.10;1.00;;;16.20;98.00;;;;;;5033514;28;20469;-64
2022/10/15 07:02:49;;;;;;;1.10;1.00;;;16.30;98.00;;;;;;5033283;28;20495;-64
2022/10/15 07:05:16;;;;;;;1.20;1.10;;;16.30;98.00;;;;;;5033152;28;20949;-64
2022/10/15 07:07:53;;;;;;;2.17;1.70;;;16.20;98.00;;;;;;5033067;28;20868;-65
2022/10/15 07:10:20;;;;;;;1.33;1.10;;;16.20;98.00;;;;;;5033270;28;20492;-64
2022/10/15 07:12:48;;;;;;;1.20;1.20;;;16.30;98.00;;;;;;5032803;28;20524;-64
2022/10/15 07:15:15;;;;;;;1.10;1.00;;;16.30;98.00;;;;;;5032706;28;20457;-64
2022/10/15 07:17:47;;;;;;;1.10;1.03;;;16.30;98.00;;;;;;5031351;28;20948;-64
2022/10/15 07:20:15;;;;;;;1.43;1.20;;;16.30;98.00;;;;;;5032693;28;20516;-64
2022/10/15 07:22:42;;;;;;;1.10;1.10;;;16.30;98.00;;;;;;5032425;28;20549;-64
2022/10/15 07:25:12;;;;;;;1.50;1.20;;;16.30;98.00;;;;;;5032665;28;20489;-64
2022/10/15 07:27:39;;;;;;;1.40;1.10;;;16.30;98.00;;;;;;5032497;28;20945;-64
2022/10/15 07:30:08;;;;;;;4.17;1.90;;;16.30;98.00;;;;;;5032608;28;20454;-64
2022/10/15 07:32:36;;;;;;;2.03;1.40;;;16.40;98.00;;;;;;5032632;28;20473;-65
2022/10/15 07:35:03;;;;;;;1.10;1.10;;;16.50;98.00;;;;;;5032791;28;20977;-64
2022/10/15 07:37:31;;;;;;;1.20;1.10;;;16.50;98.00;;;;;;5032329;28;20462;-65
2022/10/15 07:39:58;;;;;;;1.10;1.00;;;16.50;98.00;;;;;;5032517;28;20485;-64
2022/10/15 07:42:26;;;;;;;1.20;1.00;;;16.50;98.00;;;;;;5032597;28;20508;-64
2022/10/15 07:44:53;;;;;;;1.20;1.00;;;16.60;98.00;;;;;;5032106;28;20493;-64
2022/10/15 07:47:23;;;;;;;1.40;1.10;;;16.60;98.00;;;;;;5032208;28;20457;-64
2022/10/15 07:49:50;;;;;;;1.40;1.10;;;16.60;98.00;;;;;;5032185;28;20459;-64
2022/10/15 07:52:18;;;;;;;1.10;1.10;;;16.60;98.00;;;;;;5032029;28;20462;-64
2022/10/15 07:54:45;;;;;;;1.50;1.20;;;16.60;98.00;;;;;;5032338;28;20473;-64
2022/10/15 07:57:12;;;;;;;1.17;1.17;;;16.60;98.00;;;;;;5014622;28;20470;-64
2022/10/15 07:59:41;;;;;;;3.07;1.30;;;16.60;98.00;;;;;;5032488;28;20450;-65
2022/10/15 08:02:14;;;;;;;1.13;1.03;;;16.80;98.00;;;;;;5030880;28;20470;-65
2022/10/15 08:04:42;;;;;;;1.10;1.10;;;16.80;98.00;;;;;;5033220;28;21031;-64
2022/10/15 08:07:09;;;;;;;1.10;1.10;;;16.90;98.00;;;;;;5029568;28;20457;-64
2022/10/15 08:09:37;;;;;;;1.70;1.10;;;17.00;98.00;;;;;;5029565;28;20470;-65
2022/10/15 08:12:05;;;;;;;1.17;1.00;;;17.00;98.00;;;;;;5029481;28;20462;-64
2022/10/15 08:14:32;;;;;;;1.40;1.20;;;17.10;98.00;;;;;;5029647;28;20504;-65
2022/10/15 08:17:04;;;;;;;1.20;1.10;;;17.00;98.00;;;;;;5029217;28;20470;-65
2022/10/15 08:19:31;;;;;;;1.20;1.10;;;17.00;98.00;;;;;;5037700;28;20451;-65
2022/10/15 08:21:58;;;;;;;1.10;1.10;;;16.90;98.00;;;;;;5030382;28;20462;-65
2022/10/15 08:24:25;;;;;;;1.50;1.20;;;16.90;98.00;;;;;;5031558;28;20499;-65
2022/10/15 08:26:52;;;;;;;1.30;1.20;;;16.90;98.00;;;;;;5013663;28;20467;-65
2022/10/15 08:29:21;;;;;;;1.10;1.10;;;16.80;98.00;;;;;;5031180;28;20458;-65
2022/10/15 08:31:48;;;;;;;1.67;1.10;;;16.90;98.00;;;;;;5031379;28;20513;-65
2022/10/15 08:34:16;;;;;;;1.87;1.10;;;16.90;98.00;;;;;;5031373;28;20465;-65
2022/10/15 08:36:43;;;;;;;1.70;1.30;;;16.90;98.00;;;;;;5031537;28;20454;-66
2022/10/15 08:39:10;;;;;;;1.20;1.10;;;16.80;98.00;;;;;;5031252;28;20512;-66
2022/10/15 08:41:41;;;;;;;2.23;1.10;;;16.80;98.00;;;;;;5031373;28;20458;-65
2022/10/15 08:44:15;;;;;;;1.30;1.10;;;16.80;98.00;;;;;;5031418;28;20487;-65
2022/10/15 08:46:47;;;;;;;1.20;1.10;;;16.80;98.00;;;;;;5031491;28;20467;-66
2022/10/15 08:49:27;;;;;;;1.10;1.00;;;16.80;98.00;;;;;;5031350;28;20462;-66
2022/10/15 08:52:03;;;;;;;1.20;1.10;;;16.90;98.00;;;;;;5031235;28;20519;-65
2022/10/15 08:54:34;;;;;;;1.20;1.20;;;16.90;98.00;;;;;;4998293;28;20462;-65
2022/10/15 08:57:14;;;;;;;1.40;1.20;;;17.00;98.00;;;;;;5031015;28;20976;-67
2022/10/15 08:59:48;;;;;;;1.20;1.20;;;17.00;98.00;;;;;;5031185;28;20462;-68
2022/10/15 09:02:20;;;;;;;1.20;1.13;;;17.10;98.00;;;;;;5031302;28;20883;-68
2022/10/15 09:04:55;;;;;;;1.17;1.13;;;17.20;98.00;;;;;;5014030;28;20489;-68
2022/10/15 09:07:31;;;;;;;1.20;1.10;;;17.30;98.00;;;;;;5031226;28;20473;-66
2022/10/15 09:10:10;;;;;;;1.70;1.30;;;17.30;98.00;;;;;;5031245;28;20553;-67
2022/10/15 09:12:47;;;;;;;1.10;1.07;;;17.30;98.00;;;;;;5031106;28;20465;-66
2022/10/15 09:15:17;;;;;;;1.20;1.17;;;17.30;98.00;;;;;;5031074;28;20525;-66
2022/10/15 09:17:47;;;;;;;1.20;1.10;;;17.40;98.00;;;;;;5013735;28;20513;-66
2022/10/15 09:20:22;;;;;;;1.20;1.10;;;17.40;98.00;;;;;;5031302;28;20483;-66
2022/10/15 09:22:51;;;;;;;1.20;1.00;;;17.40;98.00;;;;;;5031025;28;20462;-67
2022/10/15 09:25:23;;;;;;;1.30;1.20;;;17.40;98.00;;;;;;5030961;28;20532;-67
2022/10/15 09:27:52;;;;;;;1.27;1.07;;;17.40;98.00;;;;;;5031092;28;20465;-67
2022/10/15 09:30:39;;;;;;;1.60;1.30;;;17.40;98.00;;;;;;5031110;28;20479;-66
2022/10/15 09:33:13;;;;;;;1.50;1.10;;;17.50;98.00;;;;;;5014524;28;20769;-67
2022/10/15 09:35:45;;;;;;;1.30;1.10;;;17.40;98.00;;;;;;5030933;28;20450;-66
2022/10/15 09:38:32;;;;;;;1.30;1.00;;;17.60;98.00;;;;;;5030867;28;20461;-67
2022/10/15 09:41:15;;;;;;;1.10;1.10;;;17.70;98.00;;;;;;5015070;28;20494;-66
2022/10/15 09:43:46;;;;;;;1.40;1.10;;;17.60;98.00;;;;;;5034723;28;20482;-66
2022/10/15 09:46:13;;;;;;;1.50;1.20;;;17.60;98.00;;;;;;5034561;28;20964;-66
2022/10/15 09:48:46;;;;;;;1.10;1.00;;;17.60;98.00;;;;;;5034526;28;20462;-66
2022/10/15 09:51:23;;;;;;;1.20;1.20;;;17.70;98.00;;;;;;5034369;28;20471;-67
2022/10/15 09:53:57;;;;;;;1.10;1.00;;;17.80;98.00;;;;;;5034362;28;20465;-66
2022/10/15 09:56:30;;;;;;;1.10;1.00;;;17.90;98.00;;;;;;5017013;28;20461;-67
2022/10/15 09:58:59;;;;;;;1.20;1.20;;;17.90;98.00;;;;;;5034491;28;20497;-67
2022/10/15 10:01:28;;;;;;;1.17;1.10;;;18.00;98.00;;;;;;5000241;28;20598;-66
2022/10/15 10:04:11;;;;;;;1.30;1.00;;;18.10;98.00;;;;;;5017075;28;21000;-67
2022/10/15 10:06:46;;;;;;;1.30;1.20;;;18.10;98.00;;;;;;5034348;28;20458;-66
2022/10/15 10:09:19;;;;;;;1.30;1.27;;;18.10;98.00;;;;;;5034078;28;20462;-66
2022/10/15 10:11:50;;;;;;;1.30;1.30;;;18.20;98.00;;;;;;5034039;28;20937;-67
2022/10/15 10:14:25;;;;;;;1.60;1.00;;;18.20;98.00;;;;;;5033854;28;20485;-67
2022/10/15 10:17:16;;;;;;;1.40;1.10;;;18.20;98.00;;;;;;5034105;28;20524;-66
2022/10/15 10:19:45;;;;;;;1.20;1.20;;;18.20;98.00;;;;;;5033958;28;20570;-67
2022/10/15 10:22:17;;;;;;;1.20;1.10;;;18.20;98.00;;;;;;5016664;28;20467;-66
2022/10/15 10:24:45;;;;;;;2.87;1.40;;;18.20;98.00;;;;;;5033909;28;20892;-66
2022/10/15 10:27:30;;;;;;;1.20;1.17;;;18.30;98.00;;;;;;5033640;28;20454;-66
2022/10/15 10:30:01;;;;;;;1.63;1.20;;;18.30;98.00;;;;;;5033600;28;20481;-66
2022/10/15 10:32:31;;;;;;;1.20;1.10;;;18.30;98.00;;;;;;5033559;28;20554;-66
2022/10/15 10:34:59;;;;;;;1.20;1.20;;;18.30;98.00;;;;;;5033616;28;20485;-66
2022/10/15 10:37:28;;;;;;;1.53;1.10;;;18.20;98.00;;;;;;5033345;28;20455;-67
2022/10/15 10:39:57;;;;;;;1.40;1.23;;;18.30;98.00;;;;;;5033467;28;20467;-66
2022/10/15 10:42:28;;;;;;;1.10;1.07;;;18.30;98.00;;;;;;5033624;28;20880;-66
2022/10/15 10:44:55;;;;;;;1.30;1.20;;;18.40;98.00;;;;;;5033580;28;20486;-66
2022/10/15 10:47:24;;;;;;;1.70;1.27;;;18.60;98.00;;;;;;5033330;28;20469;-66
2022/10/15 10:49:53;;;;;;;1.17;1.10;;;18.80;98.00;;;;;;5033531;28;20462;-67
2022/10/15 10:52:23;;;;;;;1.30;1.20;;;19.10;98.00;;;;;;5032887;28;20465;-66
2022/10/15 10:55:02;;;;;;;1.20;1.20;;;19.20;98.00;;;;;;5033427;28;20516;-66
2022/10/15 10:57:49;;;;;;;1.30;1.20;;;19.40;98.00;;;;;;5033468;28;20557;-66
2022/10/15 11:00:21;;;;;;;2.30;1.50;;;19.30;98.00;;;;;;5033325;28;20458;-66
2022/10/15 11:02:49;;;;;;;1.93;1.37;;;19.10;98.00;;;;;;5033469;28;20455;-66
2022/10/15 11:05:19;;;;;;;1.20;1.20;;;18.90;98.00;;;;;;5033270;28;20553;-66
2022/10/15 11:07:52;;;;;;;1.30;1.20;;;18.90;98.00;;;;;;5033183;28;20450;-67
2022/10/15 11:10:24;;;;;;;1.37;1.10;;;18.90;98.00;;;;;;5033055;28;20466;-66
2022/10/15 11:13:06;;;;;;;1.40;1.20;;;18.80;98.00;;;;;;5033070;28;20835;-67
2022/10/15 11:15:45;;;;;;;2.70;1.30;;;18.90;98.00;;;;;;5033015;28;20473;-66
2022/10/15 11:18:31;;;;;;;1.70;1.30;;;18.70;98.00;;;;;;5032751;28;20470;-66
2022/10/15 11:21:07;;;;;;;1.40;1.30;;;18.70;98.00;;;;;;5033018;28;20533;-67
2022/10/15 11:23:48;;;;;;;1.30;1.10;;;18.80;98.00;;;;;;5032789;28;20461;-67
2022/10/15 11:26:32;;;;;;;1.83;1.27;;;18.90;98.00;;;;;;5032824;28;20968;-65
2022/10/15 11:29:11;;;;;;;1.30;1.30;;;19.00;98.00;;;;;;5032665;28;20462;-67
2022/10/15 11:31:45;;;;;;;1.30;1.20;;;19.10;98.00;;;;;;5032714;28;20820;-65
2022/10/15 11:34:29;;;;;;;1.20;1.20;;;19.00;98.00;;;;;;5032473;28;20453;-66
2022/10/15 11:37:13;;;;;;;2.40;1.43;;;19.00;98.00;;;;;;5032481;28;20466;-66
2022/10/15 11:39:56;;;;;;;1.47;1.30;;;19.00;98.00;;;;;;5032399;28;20886;-65
2022/10/15 11:42:30;;;;;;;1.87;1.30;;;19.10;98.00;;;;;;5032308;28;20469;-66
2022/10/15 11:45:07;;;;;;;1.50;1.40;;;19.20;98.00;;;;;;5032192;28;20482;-66
2022/10/15 11:47:45;;;;;;;2.43;1.50;;;19.30;98.00;;;;;;5032381;28;20657;-66
2022/10/15 11:50:21;;;;;;;1.40;1.40;;;19.40;98.00;;;;;;5032193;28;20467;-66
2022/10/15 11:53:00;;;;;;;2.47;1.33;;;20.10;98.00;;;;;;5032231;28;20466;-65
2022/10/15 11:55:33;;;;;;;1.20;1.20;;;20.90;98.00;;;;;;5032253;28;20458;-64
2022/10/15 11:58:07;;;;;;;1.30;1.30;;;21.40;98.00;;;;;;5031985;28;20463;-64
2022/10/15 12:00:37;;;;;;;1.30;1.20;;;21.40;98.00;;;;;;5032180;28;20521;-64
2022/10/15 12:03:14;;;;;;;2.10;1.60;;;21.30;98.00;;;;;;5031590;28;20580;-65
2022/10/15 12:05:46;;;;;;;1.47;1.30;;;21.10;98.00;;;;;;5032136;28;20564;-64
2022/10/15 12:08:15;;;;;;;1.70;1.30;;;21.00;98.00;;;;;;5031892;28;20457;-64
2022/10/15 12:11:02;;;;;;;1.63;1.23;;;21.60;98.00;;;;;;5031832;28;20451;-64
2022/10/15 12:13:39;;;;;;;1.53;1.23;;;21.90;98.00;;;;;;5014198;28;20459;-65
2022/10/15 12:16:17;;;;;;;1.23;1.20;;;21.80;98.00;;;;;;5031414;28;20545;-65
2022/10/15 12:18:50;;;;;;;1.33;1.20;;;21.80;98.00;;;;;;5031816;28;20554;-66
2022/10/15 12:21:35;;;;;;;1.40;1.20;;;21.50;98.00;;;;;;5031721;28;20466;-66
2022/10/15 12:24:05;;;;;;;2.70;1.50;;;21.30;98.00;;;;;;5031749;28;20968;-65
2022/10/15 12:26:34;;;;;;;1.60;1.30;;;21.40;98.00;;;;;;5031873;28;20455;-66
2022/10/15 12:29:05;;;;;;;1.40;1.33;;;21.70;98.00;;;;;;5031474;28;20512;-66
2022/10/15 12:31:48;;;;;;;1.50;1.20;;;22.50;98.00;;;;;;5031730;28;20466;-65
2022/10/15 12:34:31;;;;;;;1.40;1.30;;;22.70;98.00;;;;;;5031580;28;20891;-67
2022/10/15 12:37:02;;;;;;;1.30;1.20;;;22.50;98.00;;;;;;5031467;28;20467;-65
2022/10/15 12:39:30;;;;;;;1.70;1.23;;;22.10;98.00;;;;;;5031316;28;20467;-65
2022/10/15 12:41:58;;;;;;;1.40;1.30;;;21.60;98.00;;;;;;5031460;28;20455;-66
2022/10/15 12:44:30;;;;;;;1.20;1.20;;;21.30;98.00;;;;;;5029988;28;20466;-66
2022/10/15 12:46:57;;;;;;;1.30;1.20;;;21.20;98.00;;;;;;5031449;28;20462;-66
2022/10/15 12:49:46;;;;;;;1.37;1.20;;;20.90;98.00;;;;;;5031368;28;20595;-65
2022/10/15 12:52:51;;;;;;;1.40;1.27;;;20.80;98.00;;;;;;5020016;28;20885;-66
2022/10/15 12:55:28;;;;;;;1.20;1.20;;;20.80;98.00;;;;;;5031433;28;20461;-65
2022/10/15 12:58:04;;;;;;;1.50;1.20;;;20.70;98.00;;;;;;5031365;28;20458;-64
2022/10/15 13:00:41;;;;;;;1.50;1.20;;;20.50;98.00;;;;;;5031804;28;20467;-65
2022/10/15 13:03:31;;;;;;;1.30;1.30;;;20.40;98.00;;;;;;5013849;28;20459;-65
2022/10/15 13:06:24;;;;;;;1.40;1.23;;;20.40;98.00;;;;;;5031338;28;20540;-65
2022/10/15 13:08:55;;;;;;;1.27;1.13;;;20.10;98.00;;;;;;5031094;28;20547;-64
2022/10/15 13:11:25;;;;;;;1.23;1.17;;;20.10;98.00;;;;;;5031041;28;20458;-65